createdAt,value
2023-03-31T00:01:16.926Z,18.73
2023-03-31T00:03:45.558Z,18.72
2023-03-31T00:06:18.830Z,18.73
2023-03-31T00:08:51.900Z,18.73
2023-03-31T00:11:22.552Z,18.71
2023-03-31T00:13:52.956Z,18.70
2023-03-31T00:16:21.615Z,18.69
2023-03-31T00:18:50.784Z,18.68
2023-03-31T00:21:26.115Z,18.67
2023-03-31T00:23:56.406Z,18.66
2023-03-31T00:26:26.312Z,18.65
2023-03-31T00:28:57.091Z,18.64
2023-03-31T00:31:27.212Z,18.64
2023-03-31T00:33:57.536Z,18.62
2023-03-31T00:36:28.878Z,18.62
2023-03-31T00:39:00.320Z,18.64
2023-03-31T00:41:30.499Z,18.63
2023-03-31T00:44:13.150Z,18.63
2023-03-31T00:46:52.872Z,18.61
2023-03-31T00:49:31.231Z,18.59
2023-03-31T00:52:05.261Z,18.58
2023-03-31T00:54:35.775Z,18.59
2023-03-31T00:57:06.950Z,18.60
2023-03-31T00:59:42.168Z,18.60
2023-03-31T01:02:11.908Z,18.59
2023-03-31T01:04:45.638Z,18.59
2023-03-31T01:07:23.992Z,18.58
2023-03-31T01:09:55.462Z,18.56
2023-03-31T01:12:25.242Z,18.54
2023-03-31T01:14:56.072Z,18.51
2023-03-31T01:17:25.554Z,18.50
2023-03-31T01:20:11.883Z,18.48
2023-03-31T01:23:27.058Z,18.44
2023-03-31T01:26:33.555Z,18.43
2023-03-31T01:29:11.853Z,18.41
2023-03-31T01:32:42.945Z,18.40
2023-03-31T01:35:57.206Z,18.38
2023-03-31T01:39:09.438Z,18.38
2023-03-31T01:41:59.386Z,18.39
2023-03-31T01:44:41.019Z,18.42
2023-03-31T01:47:18.396Z,18.44
2023-03-31T01:49:58.156Z,18.44
2023-03-31T01:52:32.804Z,18.44
2023-03-31T01:55:08.193Z,18.43
2023-03-31T01:57:43.153Z,18.42
2023-03-31T02:00:14.447Z,18.42
2023-03-31T02:02:49.496Z,18.42
2023-03-31T02:05:21.424Z,18.43
2023-03-31T02:07:53.950Z,18.43
2023-03-31T02:10:25.008Z,18.42
2023-03-31T02:12:56.422Z,18.41
2023-03-31T02:15:31.375Z,18.39
2023-03-31T02:18:03.585Z,18.37
2023-03-31T02:20:34.125Z,18.38
2023-03-31T02:23:03.269Z,18.38
2023-03-31T02:25:37.762Z,18.40
2023-03-31T02:28:12.288Z,18.38
2023-03-31T02:30:50.061Z,18.39
2023-03-31T02:33:19.390Z,18.38
2023-03-31T02:35:47.840Z,18.39
2023-03-31T02:38:16.399Z,18.39
2023-03-31T02:40:44.984Z,18.38
2023-03-31T02:43:14.874Z,18.37
2023-03-31T02:45:46.661Z,18.36
2023-03-31T02:48:20.074Z,18.34
2023-03-31T02:51:52.845Z,18.30
2023-03-31T02:55:09.531Z,18.25
2023-03-31T02:58:23.792Z,18.22
2023-03-31T03:01:16.781Z,18.18
2023-03-31T03:04:00.103Z,18.18
2023-03-31T03:06:40.874Z,18.19
2023-03-31T03:09:34.629Z,18.20
2023-03-31T03:12:13.695Z,18.20
2023-03-31T03:14:49.687Z,18.22
2023-03-31T03:17:24.628Z,18.22
2023-03-31T03:19:55.651Z,18.23
2023-03-31T03:22:24.968Z,18.21
2023-03-31T03:24:53.628Z,18.21
2023-03-31T03:27:24.009Z,18.20
2023-03-31T03:29:54.353Z,18.20
2023-03-31T03:32:22.788Z,18.19
2023-03-31T03:34:51.366Z,18.18
2023-03-31T03:37:19.893Z,18.17
2023-03-31T03:39:48.256Z,18.19
2023-03-31T03:42:17.230Z,18.19
2023-03-31T03:44:45.935Z,18.17
2023-03-31T03:47:16.273Z,18.19
2023-03-31T03:49:44.720Z,18.19
2023-03-31T03:52:13.076Z,18.19
2023-03-31T03:54:41.641Z,18.20
2023-03-31T03:57:10.315Z,18.18
2023-03-31T03:59:39.161Z,18.18
2023-03-31T04:02:07.897Z,18.18
2023-03-31T04:04:38.040Z,18.18
2023-03-31T04:07:06.723Z,18.18
2023-03-31T04:09:35.917Z,18.17
2023-03-31T04:12:04.760Z,18.18
2023-03-31T04:14:33.318Z,18.17
2023-03-31T04:17:02.611Z,18.15
2023-03-31T04:19:31.137Z,18.15
2023-03-31T04:22:02.679Z,18.15
2023-03-31T04:24:33.305Z,18.15
2023-03-31T04:27:03.107Z,18.15
2023-03-31T04:29:33.646Z,18.16
2023-03-31T04:32:03.442Z,18.16
2023-03-31T04:34:36.013Z,18.15
2023-03-31T04:37:06.087Z,18.16
2023-03-31T04:39:34.711Z,18.13
2023-03-31T04:42:03.443Z,18.11
2023-03-31T04:44:32.156Z,18.10
2023-03-31T04:47:03.286Z,18.07
2023-03-31T04:49:33.560Z,18.05
2023-03-31T04:52:02.217Z,18.02
2023-03-31T04:54:32.132Z,18.00
2023-03-31T04:57:00.713Z,17.99
2023-03-31T04:59:29.165Z,17.99
2023-03-31T05:01:57.942Z,17.99
2023-03-31T05:04:26.670Z,17.97
2023-03-31T05:06:55.189Z,17.94
2023-03-31T05:09:24.188Z,17.93
2023-03-31T05:11:54.738Z,17.91
2023-03-31T05:14:23.427Z,17.91
2023-03-31T05:16:52.242Z,17.90
2023-03-31T05:19:20.589Z,17.90
2023-03-31T05:21:49.034Z,17.90
2023-03-31T05:24:17.549Z,17.91
2023-03-31T05:26:49.845Z,17.89
2023-03-31T05:29:20.055Z,17.90
2023-03-31T05:31:48.976Z,17.88
2023-03-31T05:34:18.392Z,17.88
2023-03-31T05:36:48.144Z,17.86
2023-03-31T05:39:16.946Z,17.84
2023-03-31T05:41:45.493Z,17.84
2023-03-31T05:44:14.033Z,17.82
2023-03-31T05:46:44.258Z,17.80
2023-03-31T05:49:15.937Z,17.79
2023-03-31T05:51:44.327Z,17.78
2023-03-31T05:54:12.998Z,17.78
2023-03-31T05:56:41.520Z,17.79
2023-03-31T05:59:10.436Z,17.79
2023-03-31T06:01:39.337Z,17.80
2023-03-31T06:04:09.285Z,17.79
2023-03-31T06:06:38.155Z,17.78
2023-03-31T06:09:07.635Z,17.78
2023-03-31T06:11:36.435Z,17.78
2023-03-31T06:14:04.894Z,17.77
2023-03-31T06:16:33.536Z,17.76
2023-03-31T06:19:01.905Z,17.73
2023-03-31T06:21:31.960Z,17.72
2023-03-31T06:24:00.627Z,17.72
2023-03-31T06:26:29.562Z,17.72
2023-03-31T06:28:58.309Z,17.71
2023-03-31T06:31:28.170Z,17.71
2023-03-31T06:33:56.626Z,17.70
2023-03-31T06:36:25.095Z,17.69
2023-03-31T06:38:55.402Z,17.69
2023-03-31T06:41:24.725Z,17.68
2023-03-31T06:43:53.123Z,17.66
2023-03-31T06:46:22.329Z,17.66
2023-03-31T06:48:50.893Z,17.65
2023-03-31T06:51:19.610Z,17.65
2023-03-31T06:53:48.554Z,17.65
2023-03-31T06:56:18.458Z,17.66
2023-03-31T06:58:47.135Z,17.65
2023-03-31T07:01:15.556Z,17.64
2023-03-31T07:03:44.397Z,17.64
2023-03-31T07:06:13.338Z,17.63
2023-03-31T07:08:41.738Z,17.63
2023-03-31T07:11:10.440Z,17.61
2023-03-31T07:13:40.711Z,17.60
2023-03-31T07:16:09.986Z,17.57
2023-03-31T07:18:42.106Z,17.57
2023-03-31T07:21:11.072Z,17.57
2023-03-31T07:23:39.799Z,17.57
2023-03-31T07:26:08.998Z,17.58
2023-03-31T07:28:37.588Z,17.58
2023-03-31T07:31:14.023Z,17.57
2023-03-31T07:33:42.976Z,17.55
2023-03-31T07:36:14.131Z,17.57
2023-03-31T07:38:44.480Z,17.57
2023-03-31T07:41:14.736Z,17.58
2023-03-31T07:43:43.880Z,17.58
2023-03-31T07:46:19.627Z,17.57
2023-03-31T07:48:48.587Z,17.57
2023-03-31T07:51:18.901Z,17.59
2023-03-31T07:53:49.373Z,17.59
2023-03-31T07:56:18.014Z,17.59
2023-03-31T07:58:47.653Z,17.59
2023-03-31T08:01:20.482Z,17.60
2023-03-31T08:03:50.025Z,17.60
2023-03-31T08:06:20.643Z,17.61
2023-03-31T08:08:49.443Z,17.61
2023-03-31T08:11:18.414Z,17.60
2023-03-31T08:13:47.009Z,17.61
2023-03-31T08:16:17.203Z,17.60
2023-03-31T08:18:46.248Z,17.57
2023-03-31T08:21:14.937Z,17.58
2023-03-31T08:23:43.359Z,17.59
2023-03-31T08:26:17.342Z,17.60
2023-03-31T08:28:48.829Z,17.60
2023-03-31T08:31:21.419Z,17.61
2023-03-31T08:33:49.778Z,17.63
2023-03-31T08:36:18.621Z,17.65
2023-03-31T08:38:49.702Z,17.66
2023-03-31T08:41:36.722Z,17.68
2023-03-31T08:44:11.005Z,17.68
2023-03-31T08:46:43.108Z,17.71
2023-03-31T08:49:17.924Z,17.72
2023-03-31T08:51:51.576Z,17.72
2023-03-31T08:54:31.689Z,17.70
2023-03-31T08:57:00.321Z,17.73
2023-03-31T08:59:32.215Z,17.72
2023-03-31T09:02:16.089Z,17.73
2023-03-31T09:05:07.012Z,17.73
2023-03-31T09:07:47.525Z,17.73
2023-03-31T09:10:41.196Z,17.75
2023-03-31T09:13:31.430Z,17.75
2023-03-31T09:16:05.541Z,17.75
2023-03-31T09:18:38.305Z,17.75
2023-03-31T09:21:15.739Z,17.78
2023-03-31T09:23:49.981Z,17.78
2023-03-31T09:26:27.821Z,17.78
2023-03-31T09:28:59.220Z,17.79
2023-03-31T09:31:29.012Z,17.83
2023-03-31T09:34:02.859Z,17.87
2023-03-31T09:36:31.332Z,17.86
2023-03-31T09:39:02.023Z,17.90
2023-03-31T09:41:32.984Z,17.93
2023-03-31T09:44:02.588Z,17.95
2023-03-31T09:46:34.800Z,17.98
2023-03-31T09:49:12.456Z,18.01
2023-03-31T09:51:47.314Z,18.03
2023-03-31T09:54:23.411Z,18.05
2023-03-31T09:56:54.164Z,18.06
2023-03-31T09:59:25.008Z,18.07
2023-03-31T10:01:55.164Z,18.11
2023-03-31T10:04:27.712Z,18.12
2023-03-31T10:06:57.935Z,18.11
2023-03-31T10:09:29.515Z,18.12
2023-03-31T10:12:01.308Z,18.11
2023-03-31T10:14:41.931Z,18.11
2023-03-31T10:17:16.762Z,18.14
2023-03-31T10:19:53.258Z,18.16
2023-03-31T10:22:31.062Z,18.18
2023-03-31T10:25:15.322Z,18.20
2023-03-31T10:27:46.892Z,18.23
2023-03-31T10:30:23.519Z,18.28
2023-03-31T10:32:54.610Z,18.29
2023-03-31T10:35:28.299Z,18.31
2023-03-31T10:37:59.627Z,18.35
2023-03-31T10:40:30.233Z,18.35
2023-03-31T10:43:09.869Z,18.34
2023-03-31T10:45:44.714Z,18.32
2023-03-31T10:48:21.558Z,18.29
2023-03-31T10:50:51.656Z,18.27
2023-03-31T10:53:20.579Z,18.27
2023-03-31T10:56:15.780Z,18.27
2023-03-31T10:59:16.811Z,18.30
2023-03-31T11:02:03.205Z,18.31
2023-03-31T11:04:49.282Z,18.37
2023-03-31T11:07:51.932Z,18.41
2023-03-31T11:10:42.925Z,18.49
2023-03-31T11:13:23.010Z,18.57
2023-03-31T11:15:57.912Z,18.66
2023-03-31T11:18:57.078Z,18.76
2023-03-31T11:21:39.241Z,18.83
2023-03-31T11:24:22.415Z,18.89
2023-03-31T11:27:02.950Z,18.92
2023-03-31T11:29:37.177Z,18.96
2023-03-31T11:32:45.457Z,18.92
2023-03-31T11:35:47.360Z,18.81
2023-03-31T11:38:35.799Z,18.73
2023-03-31T11:41:09.884Z,18.65
2023-03-31T11:43:45.039Z,18.60
2023-03-31T11:46:19.096Z,18.53
2023-03-31T11:48:57.368Z,18.50
2023-03-31T11:51:30.535Z,18.43
2023-03-31T11:54:01.730Z,18.37
2023-03-31T11:56:37.675Z,18.34
2023-03-31T11:59:07.965Z,18.31
2023-03-31T12:01:44.101Z,18.29
2023-03-31T12:04:27.562Z,18.29
2023-03-31T12:07:05.344Z,18.31
2023-03-31T12:09:40.885Z,18.34
2023-03-31T12:12:14.752Z,18.36
2023-03-31T12:14:50.363Z,18.41
2023-03-31T12:17:22.449Z,18.45
2023-03-31T12:19:55.599Z,18.51
2023-03-31T12:22:28.624Z,18.55
2023-03-31T12:24:57.464Z,18.60
2023-03-31T12:27:33.645Z,18.64
2023-03-31T12:30:04.831Z,18.67
2023-03-31T12:32:37.874Z,18.69
2023-03-31T12:35:15.451Z,18.75
2023-03-31T12:38:31.058Z,18.78
2023-03-31T12:41:09.875Z,18.82
2023-03-31T12:44:04.119Z,18.84
2023-03-31T12:47:09.717Z,18.83
2023-03-31T12:50:00.436Z,18.84
2023-03-31T12:52:40.625Z,18.85
2023-03-31T12:55:34.986Z,18.84
2023-03-31T12:58:39.640Z,18.83
2023-03-31T13:01:17.092Z,18.82
2023-03-31T13:03:52.738Z,18.83
2023-03-31T13:07:01.349Z,18.80
2023-03-31T13:09:58.519Z,18.79
2023-03-31T13:12:31.701Z,18.79
2023-03-31T13:15:00.748Z,18.79
2023-03-31T13:17:34.073Z,18.82
2023-03-31T13:20:31.599Z,18.83
2023-03-31T13:23:20.733Z,18.85
2023-03-31T13:25:51.967Z,18.88
2023-03-31T13:28:28.933Z,18.94
2023-03-31T13:31:02.084Z,18.98
2023-03-31T13:33:42.233Z,19.05
2023-03-31T13:36:49.962Z,19.08
2023-03-31T13:39:49.745Z,19.10
2023-03-31T13:42:53.513Z,19.11
2023-03-31T13:45:43.894Z,19.12
2023-03-31T13:48:56.944Z,19.10
2023-03-31T13:51:36.239Z,19.12
2023-03-31T13:54:54.804Z,19.13
2023-03-31T13:57:40.729Z,19.15
2023-03-31T14:00:44.307Z,19.16
2023-03-31T14:03:28.221Z,19.19
2023-03-31T14:06:04.409Z,19.22
2023-03-31T14:08:47.197Z,19.24
2023-03-31T14:11:24.105Z,19.26
2023-03-31T14:14:03.037Z,19.26
2023-03-31T14:16:37.317Z,19.26
2023-03-31T14:19:44.319Z,19.25
2023-03-31T14:22:23.811Z,19.25
2023-03-31T14:25:00.357Z,19.25
2023-03-31T14:27:48.547Z,19.25
2023-03-31T14:30:29.490Z,19.25
2023-03-31T14:33:12.997Z,19.25
2023-03-31T14:35:53.146Z,19.25
2023-03-31T14:38:24.859Z,19.25
2023-03-31T14:40:56.441Z,19.25
2023-03-31T14:43:29.055Z,19.26
2023-03-31T14:46:01.956Z,19.26
2023-03-31T14:48:33.100Z,19.26
2023-03-31T14:51:04.819Z,19.27
2023-03-31T14:53:37.839Z,19.29
2023-03-31T14:56:11.205Z,19.29
2023-03-31T14:58:44.784Z,19.30
2023-03-31T15:01:19.962Z,19.31
2023-03-31T15:03:48.856Z,19.30
2023-03-31T15:06:17.531Z,19.31
2023-03-31T15:08:47.486Z,19.30
2023-03-31T15:11:20.785Z,19.30
2023-03-31T15:14:04.555Z,19.29
2023-03-31T15:16:42.368Z,19.29
2023-03-31T15:19:18.069Z,19.28
2023-03-31T15:21:47.346Z,19.26
2023-03-31T15:24:18.147Z,19.26
2023-03-31T15:26:53.912Z,19.25
2023-03-31T15:29:27.652Z,19.22
2023-03-31T15:31:58.854Z,19.18
2023-03-31T15:34:33.341Z,19.16
2023-03-31T15:37:02.768Z,19.14
2023-03-31T15:39:34.895Z,19.11
2023-03-31T15:42:05.396Z,19.06
2023-03-31T15:44:40.483Z,19.05
2023-03-31T15:47:17.374Z,18.99
2023-03-31T15:49:53.519Z,18.93
2023-03-31T15:52:29.728Z,18.88
2023-03-31T15:55:00.513Z,18.86
2023-03-31T15:57:38.060Z,18.84
2023-03-31T16:00:16.961Z,18.83
2023-03-31T16:02:47.342Z,18.81
2023-03-31T16:05:43.672Z,18.79
2023-03-31T16:08:26.166Z,18.77
2023-03-31T16:11:03.240Z,18.76
2023-03-31T16:13:33.627Z,18.77
2023-03-31T16:16:02.327Z,18.74
2023-03-31T16:18:35.747Z,18.73
2023-03-31T16:21:08.386Z,18.69
2023-03-31T16:23:44.360Z,18.67
2023-03-31T16:26:21.886Z,18.65
2023-03-31T16:28:52.749Z,18.61
2023-03-31T16:31:36.634Z,18.58
2023-03-31T16:34:06.990Z,18.55
2023-03-31T16:36:36.316Z,18.54
2023-03-31T16:39:06.739Z,18.53
2023-03-31T16:41:38.761Z,18.54
2023-03-31T16:44:07.329Z,18.54
2023-03-31T16:46:35.980Z,18.54
2023-03-31T16:49:04.408Z,18.53
2023-03-31T16:51:32.836Z,18.54
2023-03-31T16:54:01.582Z,18.54
2023-03-31T16:56:29.926Z,18.52
2023-03-31T16:58:59.697Z,18.51
2023-03-31T17:01:28.306Z,18.49
2023-03-31T17:03:56.948Z,18.50
2023-03-31T17:06:25.790Z,18.47
2023-03-31T17:08:54.189Z,18.45
2023-03-31T17:11:23.179Z,18.45
2023-03-31T17:13:52.100Z,18.46
2023-03-31T17:16:29.776Z,18.45
2023-03-31T17:19:09.814Z,18.44
2023-03-31T17:21:38.813Z,18.43
2023-03-31T17:24:10.556Z,18.44
2023-03-31T17:26:39.562Z,18.43
2023-03-31T17:29:08.049Z,18.43
2023-03-31T17:31:38.437Z,18.44
2023-03-31T17:34:07.187Z,18.42
2023-03-31T17:36:36.016Z,18.42
2023-03-31T17:39:05.128Z,18.41
2023-03-31T17:41:33.545Z,18.39
2023-03-31T17:44:02.388Z,18.39
2023-03-31T17:46:30.790Z,18.38
2023-03-31T17:49:00.917Z,18.36
2023-03-31T17:51:29.948Z,18.34
2023-03-31T17:53:58.545Z,18.32
2023-03-31T17:56:28.726Z,18.30
2023-03-31T17:58:57.732Z,18.29
2023-03-31T18:01:27.188Z,18.28
2023-03-31T18:03:56.623Z,18.27
2023-03-31T18:06:27.402Z,18.28
2023-03-31T18:08:57.121Z,18.28
2023-03-31T18:11:26.033Z,18.27
2023-03-31T18:13:55.492Z,18.28
2023-03-31T18:16:24.315Z,18.27
2023-03-31T18:18:52.768Z,18.27
2023-03-31T18:21:21.195Z,18.26
2023-03-31T18:23:55.223Z,18.23
2023-03-31T18:26:26.109Z,18.23
2023-03-31T18:28:54.999Z,18.21
2023-03-31T18:31:25.072Z,18.21
2023-03-31T18:33:54.762Z,18.18
2023-03-31T18:36:25.263Z,18.16
2023-03-31T18:38:55.800Z,18.14
2023-03-31T18:41:25.391Z,18.13
2023-03-31T18:43:54.086Z,18.12
2023-03-31T18:46:22.591Z,18.12
2023-03-31T18:48:51.650Z,18.12
2023-03-31T18:51:20.151Z,18.11
2023-03-31T18:53:48.685Z,18.11
2023-03-31T18:56:18.744Z,18.10
2023-03-31T18:58:50.860Z,18.08
2023-03-31T19:01:20.266Z,18.08
2023-03-31T19:03:49.084Z,18.05
2023-03-31T19:06:17.877Z,18.04
2023-03-31T19:08:46.368Z,18.02
2023-03-31T19:11:17.289Z,18.00
2023-03-31T19:13:47.525Z,17.99
2023-03-31T19:16:17.508Z,17.98
2023-03-31T19:18:46.633Z,17.97
2023-03-31T19:21:14.965Z,17.98
2023-03-31T19:23:43.438Z,17.97
2023-03-31T19:26:15.719Z,18.00
2023-03-31T19:28:44.548Z,18.00
2023-03-31T19:31:15.326Z,18.01
2023-03-31T19:33:44.213Z,17.99
2023-03-31T19:36:14.300Z,18.01
2023-03-31T19:38:42.850Z,18.00
2023-03-31T19:41:11.372Z,17.98
2023-03-31T19:43:39.919Z,17.96
2023-03-31T19:46:08.460Z,17.93
2023-03-31T19:48:38.348Z,17.92
2023-03-31T19:51:08.505Z,17.92
2023-03-31T19:53:40.824Z,17.92
2023-03-31T19:56:12.650Z,17.90
2023-03-31T19:58:41.932Z,17.87
2023-03-31T20:01:17.808Z,17.88
2023-03-31T20:03:52.884Z,17.86
2023-03-31T20:06:24.287Z,17.85
2023-03-31T20:08:55.998Z,17.84
2023-03-31T20:11:26.207Z,17.82
2023-03-31T20:13:55.281Z,17.78
2023-03-31T20:16:27.422Z,17.78
2023-03-31T20:19:00.103Z,17.79
2023-03-31T20:21:30.844Z,17.80
2023-03-31T20:23:59.917Z,17.81
2023-03-31T20:26:30.713Z,17.82
2023-03-31T20:29:01.902Z,17.81
2023-03-31T20:31:34.062Z,17.81
2023-03-31T20:34:05.340Z,17.79
2023-03-31T20:36:34.313Z,17.78
2023-03-31T20:39:05.660Z,17.78
2023-03-31T20:41:37.107Z,17.77
2023-03-31T20:44:07.555Z,17.76
2023-03-31T20:46:36.374Z,17.74
2023-03-31T20:49:07.173Z,17.74
2023-03-31T20:51:38.703Z,17.73
2023-03-31T20:54:08.398Z,17.73
2023-03-31T20:56:39.524Z,17.72
2023-03-31T20:59:10.290Z,17.71
2023-03-31T21:01:40.211Z,17.70
2023-03-31T21:04:12.048Z,17.71
2023-03-31T21:06:43.139Z,17.71
2023-03-31T21:09:12.835Z,17.70
2023-03-31T21:11:42.396Z,17.71
2023-03-31T21:14:14.406Z,17.70
2023-03-31T21:16:43.183Z,17.69
2023-03-31T21:19:13.664Z,17.68
2023-03-31T21:21:43.205Z,17.66
2023-03-31T21:24:13.214Z,17.64
2023-03-31T21:26:42.120Z,17.63
2023-03-31T21:29:10.769Z,17.63
2023-03-31T21:31:39.314Z,17.65
2023-03-31T21:34:07.733Z,17.64
2023-03-31T21:36:38.021Z,17.64
2023-03-31T21:39:06.574Z,17.63
2023-03-31T21:41:35.088Z,17.60
2023-03-31T21:44:04.219Z,17.59
2023-03-31T21:46:34.612Z,17.58
2023-03-31T21:49:04.497Z,17.57
2023-03-31T21:51:33.303Z,17.57
2023-03-31T21:54:03.386Z,17.58
2023-03-31T21:56:32.762Z,17.58
2023-03-31T21:59:02.371Z,17.56
2023-03-31T22:01:31.437Z,17.55
2023-03-31T22:04:00.345Z,17.54
2023-03-31T22:06:28.923Z,17.53
2023-03-31T22:08:57.589Z,17.54
2023-03-31T22:11:28.483Z,17.54
2023-03-31T22:13:57.942Z,17.54
2023-03-31T22:16:26.932Z,17.55
2023-03-31T22:18:56.967Z,17.54
2023-03-31T22:21:41.479Z,17.54
2023-03-31T22:24:13.305Z,17.53
2023-03-31T22:26:43.386Z,17.53
2023-03-31T22:29:15.885Z,17.53
2023-03-31T22:31:44.465Z,17.52
2023-03-31T22:34:13.043Z,17.53
2023-03-31T22:36:41.577Z,17.52
2023-03-31T22:39:10.713Z,17.52
2023-03-31T22:41:39.203Z,17.50
2023-03-31T22:44:09.591Z,17.52
2023-03-31T22:46:39.409Z,17.50
2023-03-31T22:49:07.802Z,17.51
2023-03-31T22:51:36.294Z,17.51
2023-03-31T22:54:05.085Z,17.48
2023-03-31T22:56:33.455Z,17.49
2023-03-31T22:59:02.341Z,17.48
2023-03-31T23:01:32.168Z,17.43
2023-03-31T23:04:01.448Z,17.42
2023-03-31T23:06:31.069Z,17.42
2023-03-31T23:08:59.890Z,17.42
2023-03-31T23:11:28.343Z,17.42
2023-03-31T23:13:56.988Z,17.42
2023-03-31T23:16:27.555Z,17.42
2023-03-31T23:18:58.217Z,17.42
2023-03-31T23:21:29.135Z,17.42
2023-03-31T23:24:01.190Z,17.42
2023-03-31T23:26:32.129Z,17.42
2023-03-31T23:29:02.010Z,17.41
2023-03-31T23:31:33.186Z,17.41
2023-03-31T23:34:03.251Z,17.40
2023-03-31T23:36:31.850Z,17.39
2023-03-31T23:39:00.902Z,17.39
2023-03-31T23:41:29.952Z,17.37
2023-03-31T23:43:58.975Z,17.37
2023-03-31T23:46:27.967Z,17.37
2023-03-31T23:48:56.464Z,17.37
2023-03-31T23:51:26.761Z,17.39
2023-03-31T23:53:55.200Z,17.37
2023-03-31T23:56:23.803Z,17.37
2023-03-31T23:58:52.154Z,17.36
